sensor_id;sensor_type;location;lat;lon;timestamp;P1;durP1;ratioP1;P2;durP2;ratioP2
49582;SDS011;36329;48.816;44.624;2023-06-14T00:00:02;9.3;;;3;;
49582;SDS011;36329;48.816;44.624;2023-06-14T00:03:10;8.7;;;2.9;;
49582;SDS011;36329;48.816;44.624;2023-06-14T00:06:12;10.5;;;2.9;;
49582;SDS011;36329;48.816;44.624;2023-06-14T00:09:14;10.6;;;2.9;;
49582;SDS011;36329;48.816;44.624;2023-06-14T00:12:16;12.2;;;2.9;;
49582;SDS011;36329;48.816;44.624;2023-06-14T00:15:18;9;;;2.9;;
49582;SDS011;36329;48.816;44.624;2023-06-14T00:18:20;12.8;;;3.2;;
49582;SDS011;36329;48.816;44.624;2023-06-14T00:21:22;10.6;;;2.7;;
49582;SDS011;36329;48.816;44.624;2023-06-14T00:24:24;11.1;;;2.8;;
49582;SDS011;36329;48.816;44.624;2023-06-14T00:27:26;9.3;;;2.8;;
49582;SDS011;36329;48.816;44.624;2023-06-14T00:30:28;11.8;;;2.6;;
49582;SDS011;36329;48.816;44.624;2023-06-14T00:33:30;9.5;;;2.5;;
49582;SDS011;36329;48.816;44.624;2023-06-14T00:36:32;11.1;;;3.1;;
49582;SDS011;36329;48.816;44.624;2023-06-14T00:39:35;12.3;;;2.9;;
49582;SDS011;36329;48.816;44.624;2023-06-14T00:42:37;8.3;;;2.6;;
49582;SDS011;36329;48.816;44.624;2023-06-14T00:45:39;10.9;;;2.6;;
49582;SDS011;36329;48.816;44.624;2023-06-14T00:48:41;10;;;2.6;;
49582;SDS011;36329;48.816;44.624;2023-06-14T00:51:43;10.3;;;3.1;;
49582;SDS011;36329;48.816;44.624;2023-06-14T00:54:46;8.2;;;2.8;;
49582;SDS011;36329;48.816;44.624;2023-06-14T00:57:48;8.2;;;2.6;;
49582;SDS011;36329;48.816;44.624;2023-06-14T01:00:50;10.4;;;3;;
49582;SDS011;36329;48.816;44.624;2023-06-14T01:03:54;10;;;2.6;;
49582;SDS011;36329;48.816;44.624;2023-06-14T01:06:58;10.9;;;2.7;;
49582;SDS011;36329;48.816;44.624;2023-06-14T01:10:11;8.2;;;3;;
49582;SDS011;36329;48.816;44.624;2023-06-14T01:13:25;8.9;;;2.8;;
49582;SDS011;36329;48.816;44.624;2023-06-14T01:16:31;8.7;;;2.8;;
49582;SDS011;36329;48.816;44.624;2023-06-14T01:19:34;10;;;2.8;;
49582;SDS011;36329;48.816;44.624;2023-06-14T01:22:36;8.7;;;2.8;;
49582;SDS011;36329;48.816;44.624;2023-06-14T01:25:38;12;;;2.8;;
49582;SDS011;36329;48.816;44.624;2023-06-14T01:28:40;11.2;;;2.9;;
49582;SDS011;36329;48.816;44.624;2023-06-14T01:31:42;11.9;;;3.2;;
49582;SDS011;36329;48.816;44.624;2023-06-14T01:34:44;9.1;;;3;;
49582;SDS011;36329;48.816;44.624;2023-06-14T01:37:47;6.8;;;2.9;;
49582;SDS011;36329;48.816;44.624;2023-06-14T01:40:51;11.5;;;3.2;;
49582;SDS011;36329;48.816;44.624;2023-06-14T01:43:55;10;;;3.1;;
49582;SDS011;36329;48.816;44.624;2023-06-14T01:46:58;9.9;;;3.5;;
49582;SDS011;36329;48.816;44.624;2023-06-14T01:50:00;11.1;;;3.1;;
49582;SDS011;36329;48.816;44.624;2023-06-14T01:53:06;13.9;;;3;;
49582;SDS011;36329;48.816;44.624;2023-06-14T01:56:09;12.7;;;3;;
49582;SDS011;36329;48.816;44.624;2023-06-14T01:59:11;11.4;;;3;;
49582;SDS011;36329;48.816;44.624;2023-06-14T02:02:13;8.2;;;3.1;;
49582;SDS011;36329;48.816;44.624;2023-06-14T02:05:15;12.8;;;3.2;;
49582;SDS011;36329;48.816;44.624;2023-06-14T02:08:18;11.5;;;3.4;;
49582;SDS011;36329;48.816;44.624;2023-06-14T02:11:20;11.1;;;3.2;;
49582;SDS011;36329;48.816;44.624;2023-06-14T02:14:23;9.7;;;3.4;;
49582;SDS011;36329;48.816;44.624;2023-06-14T02:17:26;15.8;;;4;;
49582;SDS011;36329;48.816;44.624;2023-06-14T02:20:28;11.9;;;3.3;;
49582;SDS011;36329;48.816;44.624;2023-06-14T02:23:30;13.5;;;3.6;;
49582;SDS011;36329;48.816;44.624;2023-06-14T02:26:32;12.8;;;3.8;;
49582;SDS011;36329;48.816;44.624;2023-06-14T02:29:34;10.4;;;3.5;;
49582;SDS011;36329;48.816;44.624;2023-06-14T02:32:36;13.1;;;3.9;;
49582;SDS011;36329;48.816;44.624;2023-06-14T02:35:38;12.8;;;3.7;;
49582;SDS011;36329;48.816;44.624;2023-06-14T02:38:40;13.5;;;4.3;;
49582;SDS011;36329;48.816;44.624;2023-06-14T02:41:42;16.4;;;4.2;;
49582;SDS011;36329;48.816;44.624;2023-06-14T02:44:44;11.7;;;3.9;;
49582;SDS011;36329;48.816;44.624;2023-06-14T02:47:46;13;;;4.1;;
49582;SDS011;36329;48.816;44.624;2023-06-14T02:50:48;13.5;;;4;;
49582;SDS011;36329;48.816;44.624;2023-06-14T02:53:50;15.2;;;3.3;;
49582;SDS011;36329;48.816;44.624;2023-06-14T02:56:52;12.4;;;3.4;;
49582;SDS011;36329;48.816;44.624;2023-06-14T02:59:53;13.8;;;3.5;;
49582;SDS011;36329;48.816;44.624;2023-06-14T03:02:55;17.6;;;3.3;;
49582;SDS011;36329;48.816;44.624;2023-06-14T03:05:58;15.1;;;3.8;;
49582;SDS011;36329;48.816;44.624;2023-06-14T03:09:00;13.1;;;3.3;;
49582;SDS011;36329;48.816;44.624;2023-06-14T03:12:02;12.4;;;3.4;;
49582;SDS011;36329;48.816;44.624;2023-06-14T03:15:05;12.2;;;3.2;;
49582;SDS011;36329;48.816;44.624;2023-06-14T03:18:07;10.3;;;3.1;;
49582;SDS011;36329;48.816;44.624;2023-06-14T03:21:09;9;;;3.4;;
49582;SDS011;36329;48.816;44.624;2023-06-14T03:24:11;10.6;;;3.2;;
49582;SDS011;36329;48.816;44.624;2023-06-14T03:27:13;14.2;;;3.4;;
49582;SDS011;36329;48.816;44.624;2023-06-14T03:30:15;16.3;;;3.3;;
49582;SDS011;36329;48.816;44.624;2023-06-14T03:33:17;15.2;;;3.1;;
49582;SDS011;36329;48.816;44.624;2023-06-14T03:36:19;11.7;;;3.5;;
49582;SDS011;36329;48.816;44.624;2023-06-14T03:39:21;11.9;;;3.4;;
49582;SDS011;36329;48.816;44.624;2023-06-14T03:42:23;11.5;;;3.3;;
49582;SDS011;36329;48.816;44.624;2023-06-14T03:45:25;14.2;;;2.9;;
49582;SDS011;36329;48.816;44.624;2023-06-14T03:48:27;10.1;;;2.8;;
49582;SDS011;36329;48.816;44.624;2023-06-14T03:51:29;10.7;;;3;;
49582;SDS011;36329;48.816;44.624;2023-06-14T03:54:31;13;;;2.9;;
49582;SDS011;36329;48.816;44.624;2023-06-14T03:57:32;12.3;;;3.2;;
49582;SDS011;36329;48.816;44.624;2023-06-14T04:00:34;10.7;;;3.1;;
49582;SDS011;36329;48.816;44.624;2023-06-14T04:03:37;10.9;;;3;;
49582;SDS011;36329;48.816;44.624;2023-06-14T04:06:38;6.8;;;2.7;;
49582;SDS011;36329;48.816;44.624;2023-06-14T04:09:41;8;;;2.9;;
49582;SDS011;36329;48.816;44.624;2023-06-14T04:12:44;12.8;;;3.1;;
49582;SDS011;36329;48.816;44.624;2023-06-14T04:15:46;9.5;;;2.9;;
49582;SDS011;36329;48.816;44.624;2023-06-14T04:18:48;11.4;;;3.4;;
49582;SDS011;36329;48.816;44.624;2023-06-14T04:21:50;7.4;;;3;;
49582;SDS011;36329;48.816;44.624;2023-06-14T04:24:52;8.2;;;2.9;;
49582;SDS011;36329;48.816;44.624;2023-06-14T04:27:54;9.1;;;3.3;;
49582;SDS011;36329;48.816;44.624;2023-06-14T04:30:56;12.6;;;3.4;;
49582;SDS011;36329;48.816;44.624;2023-06-14T04:33:57;10.6;;;2.9;;
49582;SDS011;36329;48.816;44.624;2023-06-14T04:36:59;11.9;;;3;;
49582;SDS011;36329;48.816;44.624;2023-06-14T04:40:01;10.7;;;2.6;;
49582;SDS011;36329;48.816;44.624;2023-06-14T04:43:05;13.7;;;3;;
49582;SDS011;36329;48.816;44.624;2023-06-14T04:46:07;10.1;;;2.9;;
49582;SDS011;36329;48.816;44.624;2023-06-14T04:49:09;9.7;;;3.1;;
49582;SDS011;36329;48.816;44.624;2023-06-14T04:52:11;8.7;;;2.8;;
49582;SDS011;36329;48.816;44.624;2023-06-14T04:55:13;8.3;;;2.9;;
49582;SDS011;36329;48.816;44.624;2023-06-14T04:58:15;11.4;;;3;;
49582;SDS011;36329;48.816;44.624;2023-06-14T05:01:18;10.9;;;2.6;;
49582;SDS011;36329;48.816;44.624;2023-06-14T05:04:20;13.8;;;2.7;;
49582;SDS011;36329;48.816;44.624;2023-06-14T05:07:22;12.6;;;2.8;;
49582;SDS011;36329;48.816;44.624;2023-06-14T05:10:24;11.4;;;2.7;;
49582;SDS011;36329;48.816;44.624;2023-06-14T05:13:26;8.8;;;2.8;;
49582;SDS011;36329;48.816;44.624;2023-06-14T05:16:28;10.5;;;2.8;;
49582;SDS011;36329;48.816;44.624;2023-06-14T05:19:30;15;;;3;;
49582;SDS011;36329;48.816;44.624;2023-06-14T05:22:32;11.9;;;2.7;;
49582;SDS011;36329;48.816;44.624;2023-06-14T05:25:34;11.3;;;2.9;;
49582;SDS011;36329;48.816;44.624;2023-06-14T05:28:36;12.9;;;2.7;;
49582;SDS011;36329;48.816;44.624;2023-06-14T05:31:38;13.2;;;3;;
49582;SDS011;36329;48.816;44.624;2023-06-14T05:34:40;11.4;;;2.8;;
49582;SDS011;36329;48.816;44.624;2023-06-14T05:37:42;7.9;;;2.7;;
49582;SDS011;36329;48.816;44.624;2023-06-14T05:40:44;13.6;;;3.1;;
49582;SDS011;36329;48.816;44.624;2023-06-14T05:43:46;10.3;;;2.5;;
49582;SDS011;36329;48.816;44.624;2023-06-14T05:46:48;15.5;;;2.8;;
49582;SDS011;36329;48.816;44.624;2023-06-14T05:49:49;15.1;;;2.9;;
49582;SDS011;36329;48.816;44.624;2023-06-14T05:52:51;9;;;2.7;;
49582;SDS011;36329;48.816;44.624;2023-06-14T05:55:54;13.2;;;3.1;;
49582;SDS011;36329;48.816;44.624;2023-06-14T05:58:57;11.6;;;3.1;;
49582;SDS011;36329;48.816;44.624;2023-06-14T06:01:58;16.3;;;3.2;;
49582;SDS011;36329;48.816;44.624;2023-06-14T06:05:00;10;;;3.2;;
49582;SDS011;36329;48.816;44.624;2023-06-14T06:08:02;12.9;;;3.7;;
49582;SDS011;36329;48.816;44.624;2023-06-14T06:11:04;12.8;;;3.2;;
49582;SDS011;36329;48.816;44.624;2023-06-14T06:14:06;11.7;;;3;;
49582;SDS011;36329;48.816;44.624;2023-06-14T06:17:08;11.6;;;2.8;;
49582;SDS011;36329;48.816;44.624;2023-06-14T06:20:11;13.8;;;3.1;;
49582;SDS011;36329;48.816;44.624;2023-06-14T06:23:13;11.9;;;2.8;;
49582;SDS011;36329;48.816;44.624;2023-06-14T06:26:15;10.1;;;2.8;;
49582;SDS011;36329;48.816;44.624;2023-06-14T06:29:17;13.5;;;2.8;;
49582;SDS011;36329;48.816;44.624;2023-06-14T06:32:19;10.4;;;3;;
49582;SDS011;36329;48.816;44.624;2023-06-14T06:35:21;14.5;;;3.2;;
49582;SDS011;36329;48.816;44.624;2023-06-14T06:38:23;17.8;;;3;;
49582;SDS011;36329;48.816;44.624;2023-06-14T06:41:25;13.3;;;3.3;;
49582;SDS011;36329;48.816;44.624;2023-06-14T06:44:27;11.7;;;3.2;;
49582;SDS011;36329;48.816;44.624;2023-06-14T06:47:29;15;;;3.1;;
49582;SDS011;36329;48.816;44.624;2023-06-14T06:50:31;12;;;3;;
49582;SDS011;36329;48.816;44.624;2023-06-14T06:53:33;12.4;;;3;;
49582;SDS011;36329;48.816;44.624;2023-06-14T06:56:34;10.9;;;3.2;;
49582;SDS011;36329;48.816;44.624;2023-06-14T06:59:36;14.4;;;3.3;;
49582;SDS011;36329;48.816;44.624;2023-06-14T07:02:38;15;;;3;;
49582;SDS011;36329;48.816;44.624;2023-06-14T07:05:40;10.2;;;2.8;;
49582;SDS011;36329;48.816;44.624;2023-06-14T07:08:42;13.9;;;3.3;;
49582;SDS011;36329;48.816;44.624;2023-06-14T07:11:44;12.6;;;3.3;;
49582;SDS011;36329;48.816;44.624;2023-06-14T07:14:46;12.7;;;2.9;;
49582;SDS011;36329;48.816;44.624;2023-06-14T07:17:48;13.1;;;3.2;;
49582;SDS011;36329;48.816;44.624;2023-06-14T07:20:50;11.3;;;3.3;;
49582;SDS011;36329;48.816;44.624;2023-06-14T07:23:52;17.3;;;3.3;;
49582;SDS011;36329;48.816;44.624;2023-06-14T07:26:54;16.6;;;3.2;;
49582;SDS011;36329;48.816;44.624;2023-06-14T07:29:56;13.8;;;3.1;;
49582;SDS011;36329;48.816;44.624;2023-06-14T07:32:58;10.8;;;3;;
49582;SDS011;36329;48.816;44.624;2023-06-14T07:36:00;10.7;;;3.3;;
49582;SDS011;36329;48.816;44.624;2023-06-14T07:39:02;9.7;;;3;;
49582;SDS011;36329;48.816;44.624;2023-06-14T07:42:04;13.5;;;3.3;;
49582;SDS011;36329;48.816;44.624;2023-06-14T07:45:06;13.1;;;3.5;;
49582;SDS011;36329;48.816;44.624;2023-06-14T07:48:09;10.8;;;2.9;;
49582;SDS011;36329;48.816;44.624;2023-06-14T07:51:11;13.8;;;3.2;;
49582;SDS011;36329;48.816;44.624;2023-06-14T07:54:13;13.3;;;3.1;;
49582;SDS011;36329;48.816;44.624;2023-06-14T07:57:14;9.3;;;3.1;;
49582;SDS011;36329;48.816;44.624;2023-06-14T08:00:16;10.5;;;2.9;;
49582;SDS011;36329;48.816;44.624;2023-06-14T08:03:19;12.1;;;3;;
49582;SDS011;36329;48.816;44.624;2023-06-14T08:06:21;11.7;;;3.1;;
49582;SDS011;36329;48.816;44.624;2023-06-14T08:09:23;13.3;;;3.2;;
49582;SDS011;36329;48.816;44.624;2023-06-14T08:12:25;14.4;;;3.6;;
49582;SDS011;36329;48.816;44.624;2023-06-14T08:15:27;11.3;;;3.5;;
49582;SDS011;36329;48.816;44.624;2023-06-14T08:18:29;15.5;;;3.7;;
49582;SDS011;36329;48.816;44.624;2023-06-14T08:21:30;13;;;3.5;;
49582;SDS011;36329;48.816;44.624;2023-06-14T08:24:32;10;;;3.4;;
49582;SDS011;36329;48.816;44.624;2023-06-14T08:27:35;12.6;;;3.4;;
49582;SDS011;36329;48.816;44.624;2023-06-14T08:30:36;13.7;;;3.4;;
49582;SDS011;36329;48.816;44.624;2023-06-14T08:33:38;15.4;;;3.7;;
49582;SDS011;36329;48.816;44.624;2023-06-14T08:36:40;12.4;;;3.6;;
49582;SDS011;36329;48.816;44.624;2023-06-14T08:39:42;16.1;;;3.6;;
49582;SDS011;36329;48.816;44.624;2023-06-14T08:42:44;13.5;;;3.4;;
49582;SDS011;36329;48.816;44.624;2023-06-14T08:45:48;15.4;;;3.6;;
49582;SDS011;36329;48.816;44.624;2023-06-14T08:48:55;16.4;;;3.5;;
49582;SDS011;36329;48.816;44.624;2023-06-14T08:51:58;14.3;;;3.7;;
49582;SDS011;36329;48.816;44.624;2023-06-14T08:55:02;12.3;;;3.3;;
49582;SDS011;36329;48.816;44.624;2023-06-14T08:58:05;16.3;;;4;;
49582;SDS011;36329;48.816;44.624;2023-06-14T09:01:07;16.7;;;4;;
49582;SDS011;36329;48.816;44.624;2023-06-14T09:04:09;13.5;;;4.3;;
49582;SDS011;36329;48.816;44.624;2023-06-14T09:07:11;15.4;;;4.2;;
49582;SDS011;36329;48.816;44.624;2023-06-14T09:10:14;13.5;;;3.9;;
49582;SDS011;36329;48.816;44.624;2023-06-14T09:13:17;15.9;;;3.7;;
49582;SDS011;36329;48.816;44.624;2023-06-14T09:16:19;15.4;;;4;;
49582;SDS011;36329;48.816;44.624;2023-06-14T09:19:21;20.1;;;4;;
49582;SDS011;36329;48.816;44.624;2023-06-14T09:22:24;14.3;;;3.8;;
49582;SDS011;36329;48.816;44.624;2023-06-14T09:25:26;19.5;;;4.1;;
49582;SDS011;36329;48.816;44.624;2023-06-14T09:28:28;14.8;;;3.9;;
49582;SDS011;36329;48.816;44.624;2023-06-14T09:31:30;22.8;;;3.9;;
49582;SDS011;36329;48.816;44.624;2023-06-14T09:34:32;18.1;;;3.9;;
49582;SDS011;36329;48.816;44.624;2023-06-14T09:37:34;15.6;;;4.3;;
49582;SDS011;36329;48.816;44.624;2023-06-14T09:40:37;17.3;;;4;;
49582;SDS011;36329;48.816;44.624;2023-06-14T09:43:39;17.1;;;4.2;;
49582;SDS011;36329;48.816;44.624;2023-06-14T09:46:41;16.4;;;4;;
49582;SDS011;36329;48.816;44.624;2023-06-14T09:49:44;17.7;;;4.3;;
49582;SDS011;36329;48.816;44.624;2023-06-14T09:52:46;15.2;;;3.9;;
49582;SDS011;36329;48.816;44.624;2023-06-14T09:55:54;17.2;;;4.3;;
49582;SDS011;36329;48.816;44.624;2023-06-14T09:58:58;19.9;;;4.6;;
49582;SDS011;36329;48.816;44.624;2023-06-14T10:02:03;12.8;;;4.2;;
49582;SDS011;36329;48.816;44.624;2023-06-14T10:05:12;16.8;;;4.3;;
49582;SDS011;36329;48.816;44.624;2023-06-14T10:08:18;18.2;;;4.2;;
49582;SDS011;36329;48.816;44.624;2023-06-14T10:11:21;14.9;;;4.1;;
49582;SDS011;36329;48.816;44.624;2023-06-14T10:14:24;18.6;;;4;;
49582;SDS011;36329;48.816;44.624;2023-06-14T10:17:32;20.3;;;4.7;;
49582;SDS011;36329;48.816;44.624;2023-06-14T10:20:41;13.1;;;4.3;;
49582;SDS011;36329;48.816;44.624;2023-06-14T10:23:51;17.2;;;4.2;;
49582;SDS011;36329;48.816;44.624;2023-06-14T10:26:54;20.8;;;4.2;;
49582;SDS011;36329;48.816;44.624;2023-06-14T10:30:02;19;;;4.5;;
49582;SDS011;36329;48.816;44.624;2023-06-14T10:33:08;13.9;;;4.2;;
49582;SDS011;36329;48.816;44.624;2023-06-14T10:36:24;23.1;;;4.8;;
49582;SDS011;36329;48.816;44.624;2023-06-14T10:39:29;18.4;;;4.4;;
49582;SDS011;36329;48.816;44.624;2023-06-14T10:42:32;17.9;;;4.4;;
49582;SDS011;36329;48.816;44.624;2023-06-14T10:45:34;17.9;;;4.3;;
49582;SDS011;36329;48.816;44.624;2023-06-14T10:48:40;14.3;;;4.2;;
49582;SDS011;36329;48.816;44.624;2023-06-14T10:51:43;22.4;;;4.4;;
49582;SDS011;36329;48.816;44.624;2023-06-14T10:58:04;18.5;;;4.3;;
49582;SDS011;36329;48.816;44.624;2023-06-14T11:01:06;14;;;4.2;;
49582;SDS011;36329;48.816;44.624;2023-06-14T11:04:09;17.4;;;3.8;;
49582;SDS011;36329;48.816;44.624;2023-06-14T11:07:18;18.3;;;4.1;;
49582;SDS011;36329;48.816;44.624;2023-06-14T11:10:38;20.1;;;4.9;;
49582;SDS011;36329;48.816;44.624;2023-06-14T11:13:42;13;;;4.4;;
49582;SDS011;36329;48.816;44.624;2023-06-14T11:16:47;21.9;;;5;;
49582;SDS011;36329;48.816;44.624;2023-06-14T11:19:50;15.1;;;4.2;;
49582;SDS011;36329;48.816;44.624;2023-06-14T11:22:52;17.9;;;4.2;;
49582;SDS011;36329;48.816;44.624;2023-06-14T11:25:54;15.3;;;4.1;;
49582;SDS011;36329;48.816;44.624;2023-06-14T11:28:57;16.3;;;4.3;;
49582;SDS011;36329;48.816;44.624;2023-06-14T11:32:00;19.1;;;4.5;;
49582;SDS011;36329;48.816;44.624;2023-06-14T11:35:02;18.6;;;4.5;;
49582;SDS011;36329;48.816;44.624;2023-06-14T11:38:05;15.8;;;4.2;;
49582;SDS011;36329;48.816;44.624;2023-06-14T11:41:07;17.1;;;4.5;;
49582;SDS011;36329;48.816;44.624;2023-06-14T11:44:09;15.9;;;4.1;;
49582;SDS011;36329;48.816;44.624;2023-06-14T11:47:11;20.1;;;4.6;;
49582;SDS011;36329;48.816;44.624;2023-06-14T11:50:13;25.4;;;4.6;;
49582;SDS011;36329;48.816;44.624;2023-06-14T11:53:15;23.7;;;4.8;;
49582;SDS011;36329;48.816;44.624;2023-06-14T11:56:18;16.8;;;4.4;;
49582;SDS011;36329;48.816;44.624;2023-06-14T11:59:20;19.5;;;4.8;;
49582;SDS011;36329;48.816;44.624;2023-06-14T12:02:22;19.7;;;4.8;;
49582;SDS011;36329;48.816;44.624;2023-06-14T12:05:25;16.7;;;4.7;;
49582;SDS011;36329;48.816;44.624;2023-06-14T12:08:32;18;;;4.6;;
49582;SDS011;36329;48.816;44.624;2023-06-14T12:11:35;20.9;;;5.2;;
49582;SDS011;36329;48.816;44.624;2023-06-14T12:14:37;17.1;;;5.1;;
49582;SDS011;36329;48.816;44.624;2023-06-14T12:17:42;23;;;4.6;;
49582;SDS011;36329;48.816;44.624;2023-06-14T12:20:48;20.2;;;4.6;;
49582;SDS011;36329;48.816;44.624;2023-06-14T12:23:52;20.1;;;5;;
49582;SDS011;36329;48.816;44.624;2023-06-14T12:26:54;16.7;;;5;;
49582;SDS011;36329;48.816;44.624;2023-06-14T12:30:00;20.8;;;5.1;;
49582;SDS011;36329;48.816;44.624;2023-06-14T12:33:03;18.7;;;5.2;;
49582;SDS011;36329;48.816;44.624;2023-06-14T12:36:06;20.5;;;4.9;;
49582;SDS011;36329;48.816;44.624;2023-06-14T12:39:09;18.6;;;3.5;;
49582;SDS011;36329;48.816;44.624;2023-06-14T12:42:11;23.4;;;5.1;;
49582;SDS011;36329;48.816;44.624;2023-06-14T12:45:13;25.4;;;6.2;;
49582;SDS011;36329;48.816;44.624;2023-06-14T12:48:15;33.7;;;9.8;;
49582;SDS011;36329;48.816;44.624;2023-06-14T12:51:17;31.3;;;7.2;;
49582;SDS011;36329;48.816;44.624;2023-06-14T12:54:18;28.4;;;5.8;;
49582;SDS011;36329;48.816;44.624;2023-06-14T12:57:20;19.8;;;4.6;;
49582;SDS011;36329;48.816;44.624;2023-06-14T13:00:22;22.1;;;4.5;;
49582;SDS011;36329;48.816;44.624;2023-06-14T13:03:24;16.2;;;3.7;;
49582;SDS011;36329;48.816;44.624;2023-06-14T13:06:26;18.3;;;3.9;;
49582;SDS011;36329;48.816;44.624;2023-06-14T13:09:28;16.4;;;4.2;;
49582;SDS011;36329;48.816;44.624;2023-06-14T13:12:30;19.2;;;4;;
49582;SDS011;36329;48.816;44.624;2023-06-14T13:15:32;22.3;;;6.1;;
49582;SDS011;36329;48.816;44.624;2023-06-14T13:18:34;23.9;;;7.8;;
49582;SDS011;36329;48.816;44.624;2023-06-14T13:21:36;22.4;;;5.5;;
49582;SDS011;36329;48.816;44.624;2023-06-14T13:24:38;25.7;;;4.5;;
49582;SDS011;36329;48.816;44.624;2023-06-14T13:27:40;23.9;;;4;;
49582;SDS011;36329;48.816;44.624;2023-06-14T13:30:42;27.6;;;4.4;;
49582;SDS011;36329;48.816;44.624;2023-06-14T13:33:45;27.5;;;4.5;;
49582;SDS011;36329;48.816;44.624;2023-06-14T13:36:48;24;;;4.4;;
49582;SDS011;36329;48.816;44.624;2023-06-14T13:39:50;28.3;;;4.4;;
49582;SDS011;36329;48.816;44.624;2023-06-14T13:42:53;26;;;4.6;;
49582;SDS011;36329;48.816;44.624;2023-06-14T13:45:55;29.1;;;4.7;;
49582;SDS011;36329;48.816;44.624;2023-06-14T13:48:57;29.3;;;4.6;;
49582;SDS011;36329;48.816;44.624;2023-06-14T13:51:59;21.4;;;4;;
49582;SDS011;36329;48.816;44.624;2023-06-14T13:55:01;27.4;;;4.5;;
49582;SDS011;36329;48.816;44.624;2023-06-14T13:58:05;26.5;;;4;;
49582;SDS011;36329;48.816;44.624;2023-06-14T14:01:07;25.3;;;4.2;;
49582;SDS011;36329;48.816;44.624;2023-06-14T14:04:09;27.3;;;4.3;;
49582;SDS011;36329;48.816;44.624;2023-06-14T14:07:11;29.4;;;4.4;;
49582;SDS011;36329;48.816;44.624;2023-06-14T14:10:13;22.6;;;4.5;;
49582;SDS011;36329;48.816;44.624;2023-06-14T14:13:15;21.9;;;4.2;;
49582;SDS011;36329;48.816;44.624;2023-06-14T14:16:17;22.1;;;3.9;;
49582;SDS011;36329;48.816;44.624;2023-06-14T14:19:19;27.1;;;4.7;;
49582;SDS011;36329;48.816;44.624;2023-06-14T14:22:21;31.9;;;5.9;;
49582;SDS011;36329;48.816;44.624;2023-06-14T14:25:23;27.7;;;5.9;;
49582;SDS011;36329;48.816;44.624;2023-06-14T14:28:25;29;;;5.6;;
49582;SDS011;36329;48.816;44.624;2023-06-14T14:31:27;31.7;;;5.8;;
49582;SDS011;36329;48.816;44.624;2023-06-14T14:34:29;27.7;;;4.9;;
49582;SDS011;36329;48.816;44.624;2023-06-14T14:37:31;28.4;;;4.6;;
49582;SDS011;36329;48.816;44.624;2023-06-14T14:40:33;29.5;;;4.8;;
49582;SDS011;36329;48.816;44.624;2023-06-14T14:43:35;21.3;;;4.4;;
49582;SDS011;36329;48.816;44.624;2023-06-14T14:46:37;26.3;;;4.5;;
49582;SDS011;36329;48.816;44.624;2023-06-14T14:49:39;33.7;;;4.8;;
49582;SDS011;36329;48.816;44.624;2023-06-14T14:52:41;25.6;;;4.5;;
49582;SDS011;36329;48.816;44.624;2023-06-14T14:55:43;32.4;;;5;;
49582;SDS011;36329;48.816;44.624;2023-06-14T14:58:45;29.4;;;5;;
49582;SDS011;36329;48.816;44.624;2023-06-14T15:01:46;32.5;;;5;;
49582;SDS011;36329;48.816;44.624;2023-06-14T15:04:48;29.7;;;4.7;;
49582;SDS011;36329;48.816;44.624;2023-06-14T15:07:50;27.5;;;4.8;;
49582;SDS011;36329;48.816;44.624;2023-06-14T15:10:52;26.2;;;4.6;;
49582;SDS011;36329;48.816;44.624;2023-06-14T15:13:54;27;;;4.3;;
49582;SDS011;36329;48.816;44.624;2023-06-14T15:16:56;27.8;;;4.6;;
49582;SDS011;36329;48.816;44.624;2023-06-14T15:19:58;22.6;;;4.3;;
49582;SDS011;36329;48.816;44.624;2023-06-14T15:23:00;30.4;;;4.4;;
49582;SDS011;36329;48.816;44.624;2023-06-14T15:26:02;24;;;4.5;;
49582;SDS011;36329;48.816;44.624;2023-06-14T15:29:04;28.1;;;4.8;;
49582;SDS011;36329;48.816;44.624;2023-06-14T15:32:06;28.9;;;5.5;;
49582;SDS011;36329;48.816;44.624;2023-06-14T15:35:08;39.4;;;6.2;;
49582;SDS011;36329;48.816;44.624;2023-06-14T15:38:11;38.2;;;6.7;;
49582;SDS011;36329;48.816;44.624;2023-06-14T15:41:13;39.2;;;6.6;;
49582;SDS011;36329;48.816;44.624;2023-06-14T15:44:15;37.7;;;7;;
49582;SDS011;36329;48.816;44.624;2023-06-14T15:47:16;33.7;;;6.9;;
49582;SDS011;36329;48.816;44.624;2023-06-14T15:50:18;30.8;;;6.6;;
49582;SDS011;36329;48.816;44.624;2023-06-14T15:53:20;30.2;;;7.2;;
49582;SDS011;36329;48.816;44.624;2023-06-14T15:56:22;28.2;;;6.5;;
49582;SDS011;36329;48.816;44.624;2023-06-14T15:59:24;31;;;7.2;;
49582;SDS011;36329;48.816;44.624;2023-06-14T16:02:26;25.1;;;5.9;;
49582;SDS011;36329;48.816;44.624;2023-06-14T16:05:28;30.7;;;6.3;;
49582;SDS011;36329;48.816;44.624;2023-06-14T16:08:30;23.9;;;7;;
49582;SDS011;36329;48.816;44.624;2023-06-14T16:11:31;36.5;;;6.3;;
49582;SDS011;36329;48.816;44.624;2023-06-14T16:14:34;27.9;;;6.5;;
49582;SDS011;36329;48.816;44.624;2023-06-14T16:17:36;26;;;5.7;;
49582;SDS011;36329;48.816;44.624;2023-06-14T16:20:37;28.3;;;5.9;;
49582;SDS011;36329;48.816;44.624;2023-06-14T16:23:39;24.8;;;6.2;;
49582;SDS011;36329;48.816;44.624;2023-06-14T16:26:41;32.4;;;7.4;;
49582;SDS011;36329;48.816;44.624;2023-06-14T16:29:43;25.7;;;6;;
49582;SDS011;36329;48.816;44.624;2023-06-14T16:32:45;27.5;;;6.1;;
49582;SDS011;36329;48.816;44.624;2023-06-14T16:35:47;31.1;;;6.1;;
49582;SDS011;36329;48.816;44.624;2023-06-14T16:38:49;24.2;;;6.3;;
49582;SDS011;36329;48.816;44.624;2023-06-14T16:41:51;28.8;;;6.6;;
49582;SDS011;36329;48.816;44.624;2023-06-14T16:44:53;26.4;;;6.4;;
49582;SDS011;36329;48.816;44.624;2023-06-14T16:47:55;30.7;;;6.1;;
49582;SDS011;36329;48.816;44.624;2023-06-14T16:50:57;35.9;;;6.6;;
49582;SDS011;36329;48.816;44.624;2023-06-14T16:53:59;32.3;;;6.9;;
49582;SDS011;36329;48.816;44.624;2023-06-14T16:57:01;32;;;6.4;;
49582;SDS011;36329;48.816;44.624;2023-06-14T17:00:03;29.4;;;6.8;;
49582;SDS011;36329;48.816;44.624;2023-06-14T17:03:07;31.3;;;6.5;;
49582;SDS011;36329;48.816;44.624;2023-06-14T17:06:09;35.9;;;7.3;;
49582;SDS011;36329;48.816;44.624;2023-06-14T17:09:11;31.2;;;7;;
49582;SDS011;36329;48.816;44.624;2023-06-14T17:12:14;33.9;;;7.4;;
49582;SDS011;36329;48.816;44.624;2023-06-14T17:15:16;39.1;;;7.7;;
49582;SDS011;36329;48.816;44.624;2023-06-14T17:18:18;31.9;;;7.1;;
49582;SDS011;36329;48.816;44.624;2023-06-14T17:21:20;28.5;;;7.8;;
49582;SDS011;36329;48.816;44.624;2023-06-14T17:24:22;34.3;;;8.1;;
49582;SDS011;36329;48.816;44.624;2023-06-14T17:27:25;31.4;;;7.8;;
49582;SDS011;36329;48.816;44.624;2023-06-14T17:30:27;30.6;;;7;;
49582;SDS011;36329;48.816;44.624;2023-06-14T17:33:28;24.8;;;7.2;;
49582;SDS011;36329;48.816;44.624;2023-06-14T17:36:31;35.9;;;8.3;;
49582;SDS011;36329;48.816;44.624;2023-06-14T17:39:34;33;;;7.9;;
49582;SDS011;36329;48.816;44.624;2023-06-14T17:42:35;31.3;;;7.7;;
49582;SDS011;36329;48.816;44.624;2023-06-14T17:45:37;35;;;7.8;;
49582;SDS011;36329;48.816;44.624;2023-06-14T17:48:39;26.9;;;7.2;;
49582;SDS011;36329;48.816;44.624;2023-06-14T17:51:41;28.6;;;7.2;;
49582;SDS011;36329;48.816;44.624;2023-06-14T17:54:43;30.2;;;7;;
49582;SDS011;36329;48.816;44.624;2023-06-14T17:57:45;33.4;;;6.9;;
49582;SDS011;36329;48.816;44.624;2023-06-14T18:00:47;33.5;;;7.3;;
49582;SDS011;36329;48.816;44.624;2023-06-14T18:03:50;33.2;;;6.6;;
49582;SDS011;36329;48.816;44.624;2023-06-14T18:06:52;22;;;5.9;;
49582;SDS011;36329;48.816;44.624;2023-06-14T18:09:55;28.6;;;5.8;;
49582;SDS011;36329;48.816;44.624;2023-06-14T18:12:59;20.2;;;5.7;;
49582;SDS011;36329;48.816;44.624;2023-06-14T18:16:01;25.7;;;5.7;;
49582;SDS011;36329;48.816;44.624;2023-06-14T18:19:04;22.5;;;5.3;;
49582;SDS011;36329;48.816;44.624;2023-06-14T18:22:06;25.6;;;5.6;;
49582;SDS011;36329;48.816;44.624;2023-06-14T18:25:08;21.5;;;5.4;;
49582;SDS011;36329;48.816;44.624;2023-06-14T18:28:09;17.1;;;5.2;;
49582;SDS011;36329;48.816;44.624;2023-06-14T18:31:12;22.8;;;4.6;;